sensor_id;sensor_type;location;lat;lon;timestamp;pressure;altitude;pressure_sealevel;temperature;humidity
63339;BME280;70568;51.378;-1.342;2024-03-07T00:02:21;100835.11;;;4.75;27.96
63339;BME280;70568;51.378;-1.342;2024-03-07T00:04:48;100832.87;;;5.77;27.53
63339;BME280;70568;51.378;-1.342;2024-03-07T00:07:14;100831.17;;;5.49;27.66
63339;BME280;70568;51.378;-1.342;2024-03-07T00:09:40;100825.79;;;5.10;27.57
63339;BME280;70568;51.378;-1.342;2024-03-07T00:12:08;100826.33;;;4.15;28.43
63339;BME280;70568;51.378;-1.342;2024-03-07T00:14:34;100829.33;;;5.47;28.23
63339;BME280;70568;51.378;-1.342;2024-03-07T00:17:02;100827.61;;;5.10;27.75
63339;BME280;70568;51.378;-1.342;2024-03-07T00:19:28;100827.73;;;4.85;28.39
63339;BME280;70568;51.378;-1.342;2024-03-07T00:21:55;100823.70;;;4.36;27.94
63339;BME280;70568;51.378;-1.342;2024-03-07T00:24:23;100825.19;;;4.80;28.28
63339;BME280;70568;51.378;-1.342;2024-03-07T00:26:50;100823.57;;;3.91;28.26
63339;BME280;70568;51.378;-1.342;2024-03-07T00:29:16;100824.10;;;3.89;28.03
63339;BME280;70568;51.378;-1.342;2024-03-07T00:31:43;100825.15;;;4.99;28.39
63339;BME280;70568;51.378;-1.342;2024-03-07T00:34:10;100821.32;;;3.46;29.07
63339;BME280;70568;51.378;-1.342;2024-03-07T00:36:37;100821.62;;;4.87;27.98
63339;BME280;70568;51.378;-1.342;2024-03-07T00:39:04;100823.22;;;4.75;28.59
63339;BME280;70568;51.378;-1.342;2024-03-07T00:41:31;100818.74;;;3.95;29.03
63339;BME280;70568;51.378;-1.342;2024-03-07T00:43:58;100819.94;;;4.32;28.97
63339;BME280;70568;51.378;-1.342;2024-03-07T00:46:25;100819.47;;;3.19;29.31
63339;BME280;70568;51.378;-1.342;2024-03-07T00:48:51;100821.83;;;4.82;28.91
63339;BME280;70568;51.378;-1.342;2024-03-07T00:51:18;100823.45;;;2.89;29.11
63339;BME280;70568;51.378;-1.342;2024-03-07T00:53:45;100824.25;;;3.56;28.86
63339;BME280;70568;51.378;-1.342;2024-03-07T00:56:12;100823.33;;;3.72;29.58
63339;BME280;70568;51.378;-1.342;2024-03-07T00:58:38;100820.97;;;4.63;28.88
63339;BME280;70568;51.378;-1.342;2024-03-07T01:01:06;100821.64;;;3.58;29.51
63339;BME280;70568;51.378;-1.342;2024-03-07T01:03:33;100825.28;;;3.32;29.48
63339;BME280;70568;51.378;-1.342;2024-03-07T01:06:01;100824.53;;;4.24;28.99
63339;BME280;70568;51.378;-1.342;2024-03-07T01:08:27;100824.48;;;3.14;29.54
63339;BME280;70568;51.378;-1.342;2024-03-07T01:10:54;100820.85;;;3.14;29.46
63339;BME280;70568;51.378;-1.342;2024-03-07T01:13:21;100820.09;;;3.53;29.16
63339;BME280;70568;51.378;-1.342;2024-03-07T01:15:48;100814.96;;;3.77;28.93
63339;BME280;70568;51.378;-1.342;2024-03-07T01:18:14;100818.75;;;3.92;28.41
63339;BME280;70568;51.378;-1.342;2024-03-07T01:20:41;100823.80;;;4.35;27.93
63339;BME280;70568;51.378;-1.342;2024-03-07T01:23:09;100816.39;;;3.51;28.44
63339;BME280;70568;51.378;-1.342;2024-03-07T01:25:36;100819.30;;;4.07;29.00
63339;BME280;70568;51.378;-1.342;2024-03-07T01:28:03;100813.18;;;4.20;28.18
63339;BME280;70568;51.378;-1.342;2024-03-07T01:30:30;100810.44;;;4.23;28.55
63339;BME280;70568;51.378;-1.342;2024-03-07T01:32:57;100812.73;;;5.15;28.63
63339;BME280;70568;51.378;-1.342;2024-03-07T01:35:24;100815.41;;;2.50;28.85
63339;BME280;70568;51.378;-1.342;2024-03-07T01:37:51;100819.63;;;4.53;28.89
63339;BME280;70568;51.378;-1.342;2024-03-07T01:40:17;100820.92;;;2.89;29.02
63339;BME280;70568;51.378;-1.342;2024-03-07T01:42:47;100810.61;;;3.90;28.84
63339;BME280;70568;51.378;-1.342;2024-03-07T01:45:14;100811.41;;;2.00;30.09
63339;BME280;70568;51.378;-1.342;2024-03-07T01:47:41;100804.39;;;2.77;29.47
63339;BME280;70568;51.378;-1.342;2024-03-07T01:50:08;100798.25;;;1.81;29.78
63339;BME280;70568;51.378;-1.342;2024-03-07T01:52:34;100795.90;;;2.04;31.19
63339;BME280;70568;51.378;-1.342;2024-03-07T01:55:01;100794.87;;;1.95;31.11
63339;BME280;70568;51.378;-1.342;2024-03-07T01:57:28;100792.00;;;2.59;30.30
63339;BME280;70568;51.378;-1.342;2024-03-07T01:59:55;100792.43;;;2.52;30.35
63339;BME280;70568;51.378;-1.342;2024-03-07T02:02:23;100789.65;;;2.96;30.33
63339;BME280;70568;51.378;-1.342;2024-03-07T02:04:49;100788.08;;;3.41;30.39
63339;BME280;70568;51.378;-1.342;2024-03-07T02:07:16;100787.76;;;2.64;30.01
63339;BME280;70568;51.378;-1.342;2024-03-07T02:09:43;100783.76;;;4.86;29.88
63339;BME280;70568;51.378;-1.342;2024-03-07T02:12:10;100781.84;;;4.17;29.90
63339;BME280;70568;51.378;-1.342;2024-03-07T02:14:36;100779.52;;;4.11;29.73
63339;BME280;70568;51.378;-1.342;2024-03-07T02:17:03;100777.23;;;5.56;28.92
63339;BME280;70568;51.378;-1.342;2024-03-07T02:19:30;100772.88;;;4.23;29.09
63339;BME280;70568;51.378;-1.342;2024-03-07T02:21:57;100773.22;;;3.57;29.22
63339;BME280;70568;51.378;-1.342;2024-03-07T02:24:23;100773.30;;;3.34;29.42
63339;BME280;70568;51.378;-1.342;2024-03-07T02:26:50;100771.63;;;3.21;29.56
63339;BME280;70568;51.378;-1.342;2024-03-07T02:29:17;100770.81;;;3.63;29.15
63339;BME280;70568;51.378;-1.342;2024-03-07T02:31:43;100772.15;;;3.68;29.48
63339;BME280;70568;51.378;-1.342;2024-03-07T02:34:09;100773.59;;;2.91;29.55
63339;BME280;70568;51.378;-1.342;2024-03-07T02:36:36;100766.72;;;4.68;29.48
63339;BME280;70568;51.378;-1.342;2024-03-07T02:39:03;100769.76;;;3.50;29.82
63339;BME280;70568;51.378;-1.342;2024-03-07T02:41:31;100771.56;;;2.46;29.76
63339;BME280;70568;51.378;-1.342;2024-03-07T02:43:58;100773.02;;;3.24;29.30
63339;BME280;70568;51.378;-1.342;2024-03-07T02:46:24;100770.36;;;3.71;29.31
63339;BME280;70568;51.378;-1.342;2024-03-07T02:48:52;100770.35;;;3.48;29.49
63339;BME280;70568;51.378;-1.342;2024-03-07T02:51:19;100767.29;;;3.17;29.22
63339;BME280;70568;51.378;-1.342;2024-03-07T02:53:46;100772.36;;;3.38;29.72
63339;BME280;70568;51.378;-1.342;2024-03-07T02:56:13;100770.84;;;2.20;30.41
63339;BME280;70568;51.378;-1.342;2024-03-07T02:58:39;100767.59;;;4.15;30.72
63339;BME280;70568;51.378;-1.342;2024-03-07T03:01:06;100761.79;;;2.66;31.71
63339;BME280;70568;51.378;-1.342;2024-03-07T03:03:33;100763.95;;;1.70;32.10
63339;BME280;70568;51.378;-1.342;2024-03-07T03:06:00;100765.58;;;1.90;31.71
63339;BME280;70568;51.378;-1.342;2024-03-07T03:08:27;100762.43;;;1.96;31.87
63339;BME280;70568;51.378;-1.342;2024-03-07T03:10:55;100763.66;;;2.26;31.61
63339;BME280;70568;51.378;-1.342;2024-03-07T03:13:23;100761.34;;;2.88;32.06
63339;BME280;70568;51.378;-1.342;2024-03-07T03:15:49;100759.79;;;4.14;30.97
63339;BME280;70568;51.378;-1.342;2024-03-07T03:18:16;100759.52;;;3.69;31.22
63339;BME280;70568;51.378;-1.342;2024-03-07T03:20:42;100759.57;;;2.61;31.73
63339;BME280;70568;51.378;-1.342;2024-03-07T03:23:09;100754.71;;;1.87;32.98
63339;BME280;70568;51.378;-1.342;2024-03-07T03:25:36;100755.47;;;1.60;33.88
63339;BME280;70568;51.378;-1.342;2024-03-07T03:28:04;100752.83;;;2.31;33.16
63339;BME280;70568;51.378;-1.342;2024-03-07T03:30:32;100749.45;;;2.66;32.42
63339;BME280;70568;51.378;-1.342;2024-03-07T03:33:00;100757.09;;;-0.62;34.25
63339;BME280;70568;51.378;-1.342;2024-03-07T03:35:27;100757.99;;;1.77;33.47
63339;BME280;70568;51.378;-1.342;2024-03-07T03:37:54;100763.95;;;0.05;35.28
63339;BME280;70568;51.378;-1.342;2024-03-07T03:40:21;100756.21;;;1.87;33.46
63339;BME280;70568;51.378;-1.342;2024-03-07T03:42:48;100756.43;;;1.38;34.52
63339;BME280;70568;51.378;-1.342;2024-03-07T03:45:15;100757.28;;;3.25;32.75
63339;BME280;70568;51.378;-1.342;2024-03-07T03:47:42;100757.56;;;1.52;33.87
63339;BME280;70568;51.378;-1.342;2024-03-07T03:50:11;100755.43;;;0.53;34.32
63339;BME280;70568;51.378;-1.342;2024-03-07T03:52:39;100762.70;;;0.17;35.50
63339;BME280;70568;51.378;-1.342;2024-03-07T03:55:07;100759.39;;;0.54;34.86
63339;BME280;70568;51.378;-1.342;2024-03-07T03:57:35;100757.42;;;0.85;34.79
63339;BME280;70568;51.378;-1.342;2024-03-07T04:00:02;100754.14;;;0.94;33.15
63339;BME280;70568;51.378;-1.342;2024-03-07T04:02:29;100754.30;;;1.42;33.76
63339;BME280;70568;51.378;-1.342;2024-03-07T04:04:56;100752.90;;;3.87;32.17
63339;BME280;70568;51.378;-1.342;2024-03-07T04:07:23;100750.90;;;1.95;33.33
63339;BME280;70568;51.378;-1.342;2024-03-07T04:09:50;100746.67;;;2.81;32.48
63339;BME280;70568;51.378;-1.342;2024-03-07T04:12:19;100749.78;;;3.49;32.14
63339;BME280;70568;51.378;-1.342;2024-03-07T04:14:45;100744.42;;;2.21;33.28
63339;BME280;70568;51.378;-1.342;2024-03-07T04:17:12;100743.69;;;1.16;33.62
63339;BME280;70568;51.378;-1.342;2024-03-07T04:19:40;100745.04;;;1.69;33.57
63339;BME280;70568;51.378;-1.342;2024-03-07T04:22:08;100743.47;;;2.54;33.24
63339;BME280;70568;51.378;-1.342;2024-03-07T04:24:35;100745.38;;;3.17;32.68
63339;BME280;70568;51.378;-1.342;2024-03-07T04:27:03;100740.88;;;4.71;31.26
63339;BME280;70568;51.378;-1.342;2024-03-07T04:29:30;100748.33;;;3.43;31.54
63339;BME280;70568;51.378;-1.342;2024-03-07T04:31:56;100747.86;;;3.92;30.66
63339;BME280;70568;51.378;-1.342;2024-03-07T04:34:23;100749.00;;;2.71;30.83
63339;BME280;70568;51.378;-1.342;2024-03-07T04:36:50;100750.05;;;2.28;32.12
63339;BME280;70568;51.378;-1.342;2024-03-07T04:39:17;100743.25;;;3.33;31.21
63339;BME280;70568;51.378;-1.342;2024-03-07T04:41:44;100745.38;;;3.71;32.38
63339;BME280;70568;51.378;-1.342;2024-03-07T04:44:11;100748.10;;;4.48;32.24
63339;BME280;70568;51.378;-1.342;2024-03-07T04:46:38;100747.21;;;3.74;31.81
63339;BME280;70568;51.378;-1.342;2024-03-07T04:49:05;100746.13;;;2.79;31.49
63339;BME280;70568;51.378;-1.342;2024-03-07T04:51:32;100745.20;;;3.87;31.49
63339;BME280;70568;51.378;-1.342;2024-03-07T04:53:59;100743.56;;;1.29;33.79
63339;BME280;70568;51.378;-1.342;2024-03-07T04:56:26;100744.56;;;3.90;32.25
63339;BME280;70568;51.378;-1.342;2024-03-07T04:58:53;100741.03;;;3.63;31.62
63339;BME280;70568;51.378;-1.342;2024-03-07T05:01:20;100741.71;;;2.79;32.08
63339;BME280;70568;51.378;-1.342;2024-03-07T05:03:46;100741.71;;;2.96;32.20
63339;BME280;70568;51.378;-1.342;2024-03-07T05:06:13;100740.41;;;4.27;31.65
63339;BME280;70568;51.378;-1.342;2024-03-07T05:08:41;100741.00;;;2.43;33.19
63339;BME280;70568;51.378;-1.342;2024-03-07T05:11:08;100736.86;;;2.89;32.24
63339;BME280;70568;51.378;-1.342;2024-03-07T05:13:36;100735.31;;;3.86;32.14
63339;BME280;70568;51.378;-1.342;2024-03-07T05:16:03;100737.46;;;1.87;33.29
63339;BME280;70568;51.378;-1.342;2024-03-07T05:18:30;100737.53;;;0.14;34.53
63339;BME280;70568;51.378;-1.342;2024-03-07T05:20:57;100738.36;;;1.17;34.40
63339;BME280;70568;51.378;-1.342;2024-03-07T05:23:25;100740.58;;;-0.44;36.06
63339;BME280;70568;51.378;-1.342;2024-03-07T05:25:51;100737.67;;;2.15;34.60
63339;BME280;70568;51.378;-1.342;2024-03-07T05:28:18;100738.21;;;1.88;35.49
63339;BME280;70568;51.378;-1.342;2024-03-07T05:30:45;100738.06;;;2.04;35.22
63339;BME280;70568;51.378;-1.342;2024-03-07T05:33:11;100741.91;;;0.82;35.62
63339;BME280;70568;51.378;-1.342;2024-03-07T05:35:39;100739.76;;;2.24;34.57
63339;BME280;70568;51.378;-1.342;2024-03-07T05:38:05;100745.66;;;0.60;35.69
63339;BME280;70568;51.378;-1.342;2024-03-07T05:40:32;100741.83;;;2.37;33.66
63339;BME280;70568;51.378;-1.342;2024-03-07T05:43:00;100745.21;;;0.83;36.12
63339;BME280;70568;51.378;-1.342;2024-03-07T05:45:27;100743.21;;;2.56;33.99
63339;BME280;70568;51.378;-1.342;2024-03-07T05:47:54;100743.43;;;3.54;33.71
63339;BME280;70568;51.378;-1.342;2024-03-07T05:50:21;100740.92;;;3.13;33.47
63339;BME280;70568;51.378;-1.342;2024-03-07T05:52:48;100737.66;;;3.48;33.37
63339;BME280;70568;51.378;-1.342;2024-03-07T05:55:15;100737.46;;;3.82;33.12
63339;BME280;70568;51.378;-1.342;2024-03-07T05:57:42;100736.36;;;3.83;33.00
63339;BME280;70568;51.378;-1.342;2024-03-07T06:00:11;100737.32;;;2.73;32.94
63339;BME280;70568;51.378;-1.342;2024-03-07T06:02:38;100740.02;;;3.78;32.09
63339;BME280;70568;51.378;-1.342;2024-03-07T06:05:05;100738.00;;;2.84;33.04
63339;BME280;70568;51.378;-1.342;2024-03-07T06:07:32;100736.86;;;4.92;32.41
63339;BME280;70568;51.378;-1.342;2024-03-07T06:10:03;100739.87;;;1.54;33.16
63339;BME280;70568;51.378;-1.342;2024-03-07T06:12:30;100738.39;;;2.32;33.37
63339;BME280;70568;51.378;-1.342;2024-03-07T06:14:57;100739.24;;;2.54;33.41
63339;BME280;70568;51.378;-1.342;2024-03-07T06:17:24;100740.25;;;4.08;32.82
63339;BME280;70568;51.378;-1.342;2024-03-07T06:19:51;100739.98;;;1.64;33.91
63339;BME280;70568;51.378;-1.342;2024-03-07T06:22:18;100742.55;;;4.00;32.14
63339;BME280;70568;51.378;-1.342;2024-03-07T06:24:44;100739.69;;;1.77;33.27
63339;BME280;70568;51.378;-1.342;2024-03-07T06:27:11;100741.26;;;3.86;33.67
63339;BME280;70568;51.378;-1.342;2024-03-07T06:29:38;100734.94;;;5.05;32.14
63339;BME280;70568;51.378;-1.342;2024-03-07T06:32:05;100736.17;;;4.19;32.27
63339;BME280;70568;51.378;-1.342;2024-03-07T06:34:32;100735.90;;;3.90;32.57
63339;BME280;70568;51.378;-1.342;2024-03-07T06:37:00;100736.77;;;1.73;33.32
63339;BME280;70568;51.378;-1.342;2024-03-07T06:39:27;100734.46;;;3.57;32.52
63339;BME280;70568;51.378;-1.342;2024-03-07T06:41:54;100731.73;;;3.96;32.65
63339;BME280;70568;51.378;-1.342;2024-03-07T06:44:21;100734.08;;;3.32;32.57
63339;BME280;70568;51.378;-1.342;2024-03-07T06:46:48;100735.58;;;3.23;33.23
63339;BME280;70568;51.378;-1.342;2024-03-07T06:49:16;100735.37;;;4.29;32.29
63339;BME280;70568;51.378;-1.342;2024-03-07T06:51:43;100736.30;;;3.01;33.15
63339;BME280;70568;51.378;-1.342;2024-03-07T06:54:09;100734.09;;;3.80;32.98
63339;BME280;70568;51.378;-1.342;2024-03-07T06:56:36;100728.78;;;5.11;32.11
63339;BME280;70568;51.378;-1.342;2024-03-07T06:59:03;100729.50;;;4.01;31.92
63339;BME280;70568;51.378;-1.342;2024-03-07T07:01:29;100732.93;;;3.89;31.74
63339;BME280;70568;51.378;-1.342;2024-03-07T07:03:56;100732.32;;;3.82;31.79
63339;BME280;70568;51.378;-1.342;2024-03-07T07:06:23;100735.39;;;4.92;31.40
63339;BME280;70568;51.378;-1.342;2024-03-07T07:08:50;100734.55;;;5.33;31.07
63339;BME280;70568;51.378;-1.342;2024-03-07T07:11:16;100733.19;;;4.59;30.88
63339;BME280;70568;51.378;-1.342;2024-03-07T07:13:43;100735.89;;;5.58;31.01
63339;BME280;70568;51.378;-1.342;2024-03-07T07:16:10;100732.53;;;5.95;31.05
63339;BME280;70568;51.378;-1.342;2024-03-07T07:18:36;100729.22;;;5.28;31.68
63339;BME280;70568;51.378;-1.342;2024-03-07T07:21:04;100732.51;;;3.04;32.65
63339;BME280;70568;51.378;-1.342;2024-03-07T07:23:30;100727.43;;;4.64;32.07
63339;BME280;70568;51.378;-1.342;2024-03-07T07:25:58;100729.55;;;3.93;32.80
63339;BME280;70568;51.378;-1.342;2024-03-07T07:28:25;100730.37;;;3.50;32.62
63339;BME280;70568;51.378;-1.342;2024-03-07T07:30:52;100727.85;;;1.42;34.32
63339;BME280;70568;51.378;-1.342;2024-03-07T07:33:19;100729.46;;;3.46;32.74
63339;BME280;70568;51.378;-1.342;2024-03-07T07:35:51;100726.76;;;3.61;32.94
63339;BME280;70568;51.378;-1.342;2024-03-07T07:38:17;100729.54;;;3.50;32.66
63339;BME280;70568;51.378;-1.342;2024-03-07T07:40:44;100729.83;;;5.90;32.16
63339;BME280;70568;51.378;-1.342;2024-03-07T07:43:11;100728.91;;;2.21;32.71
63339;BME280;70568;51.378;-1.342;2024-03-07T07:45:38;100728.21;;;3.06;33.64
63339;BME280;70568;51.378;-1.342;2024-03-07T07:48:05;100730.29;;;2.33;33.68
63339;BME280;70568;51.378;-1.342;2024-03-07T07:50:32;100729.12;;;3.41;32.96
63339;BME280;70568;51.378;-1.342;2024-03-07T07:53:00;100726.86;;;3.86;33.04
63339;BME280;70568;51.378;-1.342;2024-03-07T07:55:28;100727.01;;;2.79;34.34
63339;BME280;70568;51.378;-1.342;2024-03-07T07:57:57;100724.87;;;3.42;32.88
63339;BME280;70568;51.378;-1.342;2024-03-07T08:00:29;100726.97;;;0.92;36.97
63339;BME280;70568;51.378;-1.342;2024-03-07T08:02:58;100722.03;;;0.61;36.51
63339;BME280;70568;51.378;-1.342;2024-03-07T08:05:27;100724.52;;;2.10;34.63
63339;BME280;70568;51.378;-1.342;2024-03-07T08:07:57;100721.08;;;2.62;33.69
63339;BME280;70568;51.378;-1.342;2024-03-07T08:10:26;100716.20;;;4.15;33.82
63339;BME280;70568;51.378;-1.342;2024-03-07T08:12:54;100717.42;;;1.75;35.26
63339;BME280;70568;51.378;-1.342;2024-03-07T08:15:21;100711.31;;;2.01;35.29
63339;BME280;70568;51.378;-1.342;2024-03-07T08:17:49;100706.38;;;3.48;34.60
63339;BME280;70568;51.378;-1.342;2024-03-07T08:20:18;100705.85;;;1.52;37.04
63339;BME280;70568;51.378;-1.342;2024-03-07T08:22:45;100699.04;;;2.15;36.54
63339;BME280;70568;51.378;-1.342;2024-03-07T08:25:14;100699.71;;;3.20;35.51
63339;BME280;70568;51.378;-1.342;2024-03-07T08:27:45;100694.01;;;2.95;35.87
63339;BME280;70568;51.378;-1.342;2024-03-07T08:30:12;100692.76;;;3.78;34.79
63339;BME280;70568;51.378;-1.342;2024-03-07T08:32:39;100692.28;;;2.43;35.23
63339;BME280;70568;51.378;-1.342;2024-03-07T08:35:07;100685.97;;;3.34;33.52
63339;BME280;70568;51.378;-1.342;2024-03-07T08:37:35;100684.70;;;5.25;33.59
63339;BME280;70568;51.378;-1.342;2024-03-07T08:40:03;100684.53;;;3.03;35.34
63339;BME280;70568;51.378;-1.342;2024-03-07T08:42:30;100682.74;;;2.97;35.97
63339;BME280;70568;51.378;-1.342;2024-03-07T08:44:58;100678.46;;;3.59;34.78
63339;BME280;70568;51.378;-1.342;2024-03-07T08:47:25;100676.72;;;0.23;36.30
63339;BME280;70568;51.378;-1.342;2024-03-07T08:49:51;100680.41;;;1.02;36.18
63339;BME280;70568;51.378;-1.342;2024-03-07T08:52:18;100678.63;;;2.80;34.46
63339;BME280;70568;51.378;-1.342;2024-03-07T08:54:45;100674.11;;;3.72;33.80
63339;BME280;70568;51.378;-1.342;2024-03-07T08:57:12;100676.19;;;2.93;35.36
63339;BME280;70568;51.378;-1.342;2024-03-07T08:59:38;100673.65;;;2.70;35.05
63339;BME280;70568;51.378;-1.342;2024-03-07T09:02:05;100673.39;;;4.12;33.85
63339;BME280;70568;51.378;-1.342;2024-03-07T09:04:32;100670.71;;;5.36;32.79
63339;BME280;70568;51.378;-1.342;2024-03-07T09:07:00;100664.41;;;4.66;32.45
63339;BME280;70568;51.378;-1.342;2024-03-07T09:09:27;100664.97;;;3.67;33.37
63339;BME280;70568;51.378;-1.342;2024-03-07T09:11:55;100662.53;;;3.11;33.13
63339;BME280;70568;51.378;-1.342;2024-03-07T09:14:22;100661.39;;;3.44;33.68
63339;BME280;70568;51.378;-1.342;2024-03-07T09:16:48;100659.04;;;3.48;32.68
63339;BME280;70568;51.378;-1.342;2024-03-07T09:19:15;100663.47;;;5.00;33.16
63339;BME280;70568;51.378;-1.342;2024-03-07T09:21:42;100660.39;;;4.66;33.04
63339;BME280;70568;51.378;-1.342;2024-03-07T09:24:08;100656.15;;;5.37;31.95
63339;BME280;70568;51.378;-1.342;2024-03-07T09:26:35;100652.18;;;4.27;32.27
63339;BME280;70568;51.378;-1.342;2024-03-07T09:29:02;100653.17;;;5.62;33.42
63339;BME280;70568;51.378;-1.342;2024-03-07T09:31:29;100653.58;;;2.57;34.20
63339;BME280;70568;51.378;-1.342;2024-03-07T09:33:56;100651.85;;;1.65;35.40
63339;BME280;70568;51.378;-1.342;2024-03-07T09:36:24;100651.26;;;1.09;37.11
63339;BME280;70568;51.378;-1.342;2024-03-07T09:38:51;100648.19;;;1.94;36.49
63339;BME280;70568;51.378;-1.342;2024-03-07T09:41:18;100645.41;;;1.41;36.45
63339;BME280;70568;51.378;-1.342;2024-03-07T09:43:47;100646.87;;;3.20;35.27
63339;BME280;70568;51.378;-1.342;2024-03-07T09:46:14;100644.15;;;2.44;34.49
63339;BME280;70568;51.378;-1.342;2024-03-07T09:48:42;100649.65;;;4.04;35.23
63339;BME280;70568;51.378;-1.342;2024-03-07T09:51:10;100649.30;;;3.27;33.79
63339;BME280;70568;51.378;-1.342;2024-03-07T09:53:39;100645.11;;;3.50;33.29
63339;BME280;70568;51.378;-1.342;2024-03-07T09:56:07;100641.96;;;3.82;32.20
63339;BME280;70568;51.378;-1.342;2024-03-07T09:58:37;100647.11;;;0.86;35.09
63339;BME280;70568;51.378;-1.342;2024-03-07T10:01:05;100639.81;;;4.82;32.32
63339;BME280;70568;51.378;-1.342;2024-03-07T10:03:34;100643.67;;;1.53;34.46
63339;BME280;70568;51.378;-1.342;2024-03-07T10:06:01;100643.16;;;2.80;33.82
63339;BME280;70568;51.378;-1.342;2024-03-07T10:08:29;100637.31;;;3.65;32.69
63339;BME280;70568;51.378;-1.342;2024-03-07T10:10:56;100632.69;;;4.42;32.44
63339;BME280;70568;51.378;-1.342;2024-03-07T10:13:22;100633.76;;;3.06;32.28
63339;BME280;70568;51.378;-1.342;2024-03-07T10:15:49;100633.00;;;4.13;33.10
63339;BME280;70568;51.378;-1.342;2024-03-07T10:18:16;100630.91;;;4.76;31.61
63339;BME280;70568;51.378;-1.342;2024-03-07T10:20:43;100632.04;;;0.76;36.29
63339;BME280;70568;51.378;-1.342;2024-03-07T10:23:10;100632.92;;;3.20;34.24
63339;BME280;70568;51.378;-1.342;2024-03-07T10:25:37;100626.71;;;4.28;31.99
63339;BME280;70568;51.378;-1.342;2024-03-07T10:28:04;100631.04;;;1.62;36.64
63339;BME280;70568;51.378;-1.342;2024-03-07T10:30:30;100627.71;;;2.99;33.93
63339;BME280;70568;51.378;-1.342;2024-03-07T10:33:06;100625.27;;;3.06;33.12
63339;BME280;70568;51.378;-1.342;2024-03-07T10:35:33;100619.71;;;3.50;32.69
63339;BME280;70568;51.378;-1.342;2024-03-07T10:38:01;100611.61;;;4.87;31.24
63339;BME280;70568;51.378;-1.342;2024-03-07T10:40:28;100612.33;;;5.77;30.58
63339;BME280;70568;51.378;-1.342;2024-03-07T10:42:57;100607.23;;;4.79;30.80
63339;BME280;70568;51.378;-1.342;2024-03-07T10:45:24;100608.34;;;5.58;30.33
63339;BME280;70568;51.378;-1.342;2024-03-07T10:47:55;100609.29;;;5.20;31.39
63339;BME280;70568;51.378;-1.342;2024-03-07T10:50:39;100606.75;;;3.25;32.50
63339;BME280;70568;51.378;-1.342;2024-03-07T10:53:17;100601.29;;;3.81;31.77
63339;BME280;70568;51.378;-1.342;2024-03-07T10:55:54;100603.89;;;3.71;32.91
63339;BME280;70568;51.378;-1.342;2024-03-07T10:58:35;100592.19;;;5.14;31.49
63339;BME280;70568;51.378;-1.342;2024-03-07T11:01:05;100594.17;;;3.73;32.26
63339;BME280;70568;51.378;-1.342;2024-03-07T11:03:33;100584.49;;;4.52;31.66
63339;BME280;70568;51.378;-1.342;2024-03-07T11:06:01;100582.46;;;5.04;31.61
63339;BME280;70568;51.378;-1.342;2024-03-07T11:08:29;100581.17;;;5.90;30.57
63339;BME280;70568;51.378;-1.342;2024-03-07T11:10:56;100578.30;;;6.47;29.80
63339;BME280;70568;51.378;-1.342;2024-03-07T11:13:22;100569.56;;;6.01;30.00
63339;BME280;70568;51.378;-1.342;2024-03-07T11:15:50;100570.04;;;5.12;30.20
63339;BME280;70568;51.378;-1.342;2024-03-07T11:18:18;100566.27;;;4.52;30.44
63339;BME280;70568;51.378;-1.342;2024-03-07T11:20:45;100563.45;;;5.96;30.04
63339;BME280;70568;51.378;-1.342;2024-03-07T11:23:29;100561.97;;;5.44;29.94
63339;BME280;70568;51.378;-1.342;2024-03-07T11:26:03;100558.01;;;5.08;31.14
63339;BME280;70568;51.378;-1.342;2024-03-07T11:28:30;100558.35;;;3.31;32.45
63339;BME280;70568;51.378;-1.342;2024-03-07T11:31:13;100551.11;;;5.82;29.93
63339;BME280;70568;51.378;-1.342;2024-03-07T11:33:41;100550.15;;;4.88;31.19
63339;BME280;70568;51.378;-1.342;2024-03-07T11:36:09;100542.92;;;5.02;31.38
63339;BME280;70568;51.378;-1.342;2024-03-07T11:38:36;100538.04;;;4.90;30.68
63339;BME280;70568;51.378;-1.342;2024-03-07T11:41:04;100536.93;;;4.67;31.44
63339;BME280;70568;51.378;-1.342;2024-03-07T11:43:31;100533.29;;;5.48;30.29
63339;BME280;70568;51.378;-1.342;2024-03-07T11:45:59;100537.09;;;5.24;31.35
63339;BME280;70568;51.378;-1.342;2024-03-07T11:48:26;100532.54;;;4.83;32.07
63339;BME280;70568;51.378;-1.342;2024-03-07T11:50:53;100529.00;;;4.91;31.47
63339;BME280;70568;51.378;-1.342;2024-03-07T11:53:20;100530.03;;;4.03;32.34
63339;BME280;70568;51.378;-1.342;2024-03-07T11:55:46;100525.46;;;2.96;33.01
63339;BME280;70568;51.378;-1.342;2024-03-07T11:58:14;100522.42;;;6.29;30.54
63339;BME280;70568;51.378;-1.342;2024-03-07T12:00:43;100524.27;;;4.99;31.04
63339;BME280;70568;51.378;-1.342;2024-03-07T12:03:11;100513.78;;;5.42;30.87
63339;BME280;70568;51.378;-1.342;2024-03-07T12:05:39;100512.39;;;5.67;31.03
63339;BME280;70568;51.378;-1.342;2024-03-07T12:08:06;100507.06;;;4.08;32.14
63339;BME280;70568;51.378;-1.342;2024-03-07T12:10:32;100505.83;;;2.99;33.31
63339;BME280;70568;51.378;-1.342;2024-03-07T12:13:01;100498.38;;;4.71;32.81
63339;BME280;70568;51.378;-1.342;2024-03-07T12:15:30;100495.34;;;4.95;31.74
63339;BME280;70568;51.378;-1.342;2024-03-07T12:17:56;100489.78;;;5.19;31.86
63339;BME280;70568;51.378;-1.342;2024-03-07T12:20:23;100484.61;;;5.74;30.72
63339;BME280;70568;51.378;-1.342;2024-03-07T12:22:50;100477.82;;;5.60;31.15
63339;BME280;70568;51.378;-1.342;2024-03-07T12:25:18;100473.61;;;3.62;31.28
63339;BME280;70568;51.378;-1.342;2024-03-07T12:27:45;100471.59;;;5.63;29.84
63339;BME280;70568;51.378;-1.342;2024-03-07T12:30:15;100466.42;;;4.31;30.93
63339;BME280;70568;51.378;-1.342;2024-03-07T12:32:48;100460.60;;;5.08;31.24
63339;BME280;70568;51.378;-1.342;2024-03-07T12:35:15;100459.16;;;3.87;31.67
63339;BME280;70568;51.378;-1.342;2024-03-07T12:37:42;100457.84;;;6.07;30.72
63339;BME280;70568;51.378;-1.342;2024-03-07T12:40:11;100456.26;;;6.49;30.36
63339;BME280;70568;51.378;-1.342;2024-03-07T12:42:39;100444.95;;;7.58;29.88
63339;BME280;70568;51.378;-1.342;2024-03-07T12:45:06;100444.76;;;5.03;31.30
63339;BME280;70568;51.378;-1.342;2024-03-07T12:47:34;100438.01;;;6.66;30.33
63339;BME280;70568;51.378;-1.342;2024-03-07T12:50:01;100434.79;;;7.65;29.05
63339;BME280;70568;51.378;-1.342;2024-03-07T12:52:29;100427.13;;;3.65;31.43